Time;durP1;ratioP1;P1;durP2;ratioP2;P2;SDS_P1;SDS_P2;PMS_P1;PMS_P2;Temp;Humidity;BMP_temperature;BMP_pressure;BME280_temperature;BME280_humidity;BME280_pressure;Samples;Min_cycle;Max_cycle;Signal;HPM_P1;HPM_P2
2023/02/12 00:00:50;;;;;;;29.65;18.10;;;;;;;3.49;77.66;98101.59;4990203;28;20657;-72
2023/02/12 00:03:17;;;;;;;34.13;19.08;;;;;;;3.57;77.36;98106.66;4989627;28;20502;-73
2023/02/12 00:05:43;;;;;;;37.05;19.55;;;;;;;3.41;77.89;98110.81;4990423;28;20081;-73
2023/02/12 00:08:13;;;;;;;33.00;18.85;;;;;;;3.23;78.81;98108.16;4989948;28;20054;-72
2023/02/12 00:10:41;;;;;;;33.40;18.60;;;;;;;3.11;79.39;98097.34;4990268;28;20151;-73
2023/02/12 00:13:08;;;;;;;33.88;19.30;;;;;;;3.15;79.26;98103.94;4989567;28;20049;-73
2023/02/12 00:15:37;;;;;;;37.90;19.98;;;;;;;3.16;79.51;98105.56;4990082;28;20060;-72
2023/02/12 00:18:04;;;;;;;33.10;19.88;;;;;;;3.21;79.45;98105.72;4989737;28;20131;-73
2023/02/12 00:20:30;;;;;;;38.35;19.95;;;;;;;3.10;79.52;98095.72;4989825;28;20054;-73
2023/02/12 00:22:57;;;;;;;37.35;19.08;;;;;;;2.98;80.53;98097.53;4990054;28;20054;-72
2023/02/12 00:25:25;;;;;;;34.78;19.45;;;;;;;3.18;80.21;98100.78;4989694;28;20042;-73
2023/02/12 00:27:51;;;;;;;35.38;19.00;;;;;;;3.23;79.79;98106.28;4990175;28;20065;-72
2023/02/12 00:30:18;;;;;;;32.13;18.38;;;;;;;3.34;79.47;98100.16;4989371;28;20065;-72
2023/02/12 00:32:45;;;;;;;35.38;19.40;;;;;;;3.34;79.34;98116.31;4989828;28;20065;-72
2023/02/12 00:35:12;;;;;;;33.83;19.45;;;;;;;3.31;79.90;98108.69;4989327;28;20054;-73
2023/02/12 00:37:38;;;;;;;34.42;20.02;;;;;;;3.17;80.25;98112.59;4990149;28;20042;-73
2023/02/12 00:40:06;;;;;;;34.85;19.13;;;;;;;3.08;80.69;98113.94;4989586;28;20055;-73
2023/02/12 00:42:34;;;;;;;36.72;20.35;;;;;;;2.96;81.25;98110.38;4990336;28;20047;-73
2023/02/12 00:45:01;;;;;;;37.35;19.70;;;;;;;2.91;81.62;98104.84;4990199;28;20053;-72
2023/02/12 00:47:27;;;;;;;40.03;20.20;;;;;;;2.90;81.98;98114.00;4993244;28;20046;-72
2023/02/12 00:49:54;;;;;;;35.13;19.95;;;;;;;2.93;82.20;98110.84;4993415;28;20050;-72
2023/02/12 00:52:20;;;;;;;34.35;19.70;;;;;;;2.93;82.18;98118.94;4991420;28;20691;-72
2023/02/12 00:54:47;;;;;;;40.75;20.38;;;;;;;2.93;82.27;98108.16;4992976;28;20043;-72
2023/02/12 00:57:13;;;;;;;34.78;20.08;;;;;;;2.94;82.99;98110.63;4992428;28;20167;-73
2023/02/12 00:59:41;;;;;;;36.47;19.38;;;;;;;2.84;83.27;98111.16;4992712;28;20502;-72
2023/02/12 01:02:08;;;;;;;35.30;20.17;;;;;;;2.85;83.79;98114.66;4992844;28;20050;-73
2023/02/12 01:04:35;;;;;;;37.60;20.15;;;;;;;2.97;83.79;98125.47;4993378;28;20054;-72
2023/02/12 01:07:01;;;;;;;37.13;19.40;;;;;;;2.92;84.25;98117.25;4993232;28;20047;-72
2023/02/12 01:09:27;;;;;;;39.30;20.75;;;;;;;2.84;85.59;98129.97;4992866;28;20058;-73
2023/02/12 01:11:54;;;;;;;35.70;19.52;;;;;;;2.83;86.34;98125.66;4992998;28;20058;-72
2023/02/12 01:14:21;;;;;;;36.00;20.17;;;;;;;2.83;86.47;98122.97;4992685;28;20516;-72
2023/02/12 01:16:49;;;;;;;33.70;19.30;;;;;;;3.02;85.70;98113.00;4993074;28;20047;-72
2023/02/12 01:19:16;;;;;;;37.55;19.65;;;;;;;2.99;86.02;98113.47;4992770;28;20403;-71
2023/02/12 01:21:42;;;;;;;35.38;20.80;;;;;;;2.80;87.23;98098.38;4993055;28;20446;-72
2023/02/12 01:24:09;;;;;;;40.90;20.55;;;;;;;2.75;89.00;98101.72;4992121;28;20410;-73
2023/02/12 01:26:36;;;;;;;41.53;21.65;;;;;;;2.68;88.98;98105.56;4993077;28;20054;-72
2023/02/12 01:29:05;;;;;;;40.40;21.40;;;;;;;2.76;89.36;98107.94;4992527;28;20042;-73
2023/02/12 01:31:36;;;;;;;39.58;20.40;;;;;;;2.88;88.43;98112.34;4992820;28;20053;-73
2023/02/12 01:34:06;;;;;;;41.83;21.65;;;;;;;2.72;89.44;98112.97;4992299;28;20070;-73
2023/02/12 01:36:32;;;;;;;46.25;22.30;;;;;;;2.70;89.95;98115.03;4992680;28;20047;-72
2023/02/12 01:39:01;;;;;;;42.58;21.63;;;;;;;2.65;91.01;98122.94;4992722;28;20057;-72
2023/02/12 01:41:30;;;;;;;42.20;21.10;;;;;;;2.73;91.26;98119.97;4992440;28;20042;-72
2023/02/12 01:44:11;;;;;;;38.88;21.13;;;;;;;2.90;90.66;98109.44;4992665;28;20053;-73
2023/02/12 01:46:38;;;;;;;41.15;20.58;;;;;;;2.81;91.27;98116.97;4992565;28;20053;-72
2023/02/12 01:49:12;;;;;;;39.67;20.52;;;;;;;2.99;90.88;98118.03;4992715;28;20042;-74
2023/02/12 01:51:40;;;;;;;40.00;21.02;;;;;;;3.08;90.61;98111.25;4993013;28;20050;-73
2023/02/12 01:54:10;;;;;;;36.80;19.60;;;;;;;3.26;89.72;98113.09;4992524;28;20045;-73
2023/02/12 01:56:37;;;;;;;38.40;19.67;;;;;;;3.28;89.41;98106.44;4993315;28;20062;-73
2023/02/12 01:59:04;;;;;;;36.72;20.30;;;;;;;3.07;90.89;98093.47;4992463;28;20046;-72
2023/02/12 02:01:33;;;;;;;46.28;21.35;;;;;;;2.92;92.54;98087.66;4992857;28;20506;-72
2023/02/12 02:04:05;;;;;;;41.28;22.35;;;;;;;2.86;93.89;98098.28;4996185;28;20125;-78
2023/02/12 02:06:35;;;;;;;43.40;22.60;;;;;;;2.91;94.38;98096.78;4994884;28;20058;-72
2023/02/12 02:09:02;;;;;;;38.50;20.10;;;;;;;3.12;93.47;98099.00;5000696;28;20130;-74
2023/02/12 02:17:06;;;;;;;42.38;21.75;;;;;;;3.27;92.56;98098.59;4997527;28;20069;-72
2023/02/12 02:19:54;;;;;;;40.35;20.30;;;;;;;3.25;92.64;98096.13;4995663;28;20086;-73
2023/02/12 02:22:31;;;;;;;47.75;22.83;;;;;;;3.18;93.54;98097.25;4994579;28;20062;-72
2023/02/12 02:25:19;;;;;;;45.63;21.92;;;;;;;3.28;93.27;98098.34;4993526;28;20054;-72
2023/02/12 02:27:58;;;;;;;42.25;20.65;;;;;;;3.44;92.50;98093.38;4993019;28;20445;-72
2023/02/12 02:30:54;;;;;;;41.85;19.52;;;;;;;3.52;91.97;98098.44;4992782;28;20050;-73
2023/02/12 02:33:32;;;;;;;41.08;20.35;;;;;;;3.42;91.93;98106.25;4990582;28;20042;-76
2023/02/12 02:36:12;;;;;;;37.00;19.77;;;;;;;3.44;92.01;98109.53;4992125;28;20383;-72
2023/02/12 02:38:46;;;;;;;49.15;22.30;;;;;;;3.18;93.65;98100.78;4992297;28;20058;-73
2023/02/12 02:41:19;;;;;;;42.28;21.15;;;;;;;3.17;94.52;98104.53;4992035;28;20498;-77
2023/02/12 02:43:49;;;;;;;46.92;23.30;;;;;;;2.97;96.61;98098.56;4992935;28;20046;-72
2023/02/12 02:46:23;;;;;;;44.88;22.17;;;;;;;2.89;97.72;98102.41;4992393;28;20462;-73
2023/02/12 02:48:53;;;;;;;47.17;23.30;;;;;;;2.98;98.17;98103.75;4992311;28;20043;-72
2023/02/12 02:51:22;;;;;;;49.10;22.65;;;;;;;3.16;97.18;98108.25;4991713;28;20054;-72
2023/02/12 02:53:54;;;;;;;39.83;21.02;;;;;;;3.22;96.11;98107.34;4991266;28;20050;-72
2023/02/12 02:56:24;;;;;;;44.33;22.88;;;;;;;3.13;95.97;98111.41;4983204;28;20062;-72
2023/02/12 02:58:55;;;;;;;42.08;21.42;;;;;;;3.13;96.55;98114.09;4992399;28;20105;-72
2023/02/12 03:01:28;;;;;;;49.78;24.30;;;;;;;3.05;97.10;98114.41;4990971;28;20046;-72
2023/02/12 03:04:00;;;;;;;;;;;;;;;3.00;98.09;98109.72;4991844;28;20499;-72
2023/02/12 03:06:32;;;;;;;44.00;22.48;;;;;;;3.08;98.57;98108.56;4990515;28;19977;-72
2023/02/12 03:09:04;;;;;;;52.87;24.00;;;;;;;3.07;98.32;98107.75;4990718;28;20049;-72
2023/02/12 03:11:33;;;;;;;52.30;24.33;;;;;;;3.15;98.40;98117.41;4990950;28;20065;-72
2023/02/12 03:14:06;;;;;;;50.53;23.05;;;;;;;3.16;98.21;98119.03;4990970;28;20061;-72
2023/02/12 03:16:36;;;;;;;;;;;;;;;3.13;98.67;98114.09;4991168;28;20046;-72
2023/02/12 03:19:08;;;;;;;46.85;22.45;;;;;;;3.13;98.80;98114.09;4990353;28;19921;-73
2023/02/12 03:21:40;;;;;;;48.70;23.08;;;;;;;3.17;98.92;98115.28;4990908;28;20043;-73
2023/02/12 03:24:12;;;;;;;52.72;24.73;;;;;;;3.14;99.10;98116.56;4990313;28;20058;-73
2023/02/12 03:26:45;;;;;;;53.90;23.67;;;;;;;3.14;99.49;98111.19;4990649;28;20495;-72
2023/02/12 03:29:12;;;;;;;55.28;25.00;;;;;;;2.98;100.00;98109.13;4990126;28;20050;-72
2023/02/12 03:31:54;;;;;;;60.90;25.90;;;;;;;2.83;100.00;98114.91;4990748;28;20129;-72
2023/02/12 03:34:28;;;;;;;70.57;29.17;;;;;;;2.65;100.00;98120.25;4990273;28;20046;-72
2023/02/12 03:36:59;;;;;;;63.28;28.17;;;;;;;2.67;100.00;98112.81;4990626;28;20077;-72
2023/02/12 03:39:30;;;;;;;71.00;30.50;;;;;;;2.54;100.00;98112.94;4990254;28;20502;-72
2023/02/12 03:42:05;;;;;;;64.88;28.98;;;;;;;2.63;100.00;98130.44;4990231;28;20042;-72
2023/02/12 03:44:46;;;;;;;63.08;28.58;;;;;;;2.60;100.00;98131.69;4990342;28;20050;-73
2023/02/12 03:47:22;;;;;;;68.95;30.02;;;;;;;2.55;100.00;98125.34;4990002;28;20065;-73
2023/02/12 03:49:55;;;;;;;74.57;29.45;;;;;;;2.58;100.00;98127.59;4990467;28;20054;-72
2023/02/12 03:52:22;;;;;;;64.13;27.70;;;;;;;2.78;100.00;98117.44;4989683;28;20057;-72
2023/02/12 03:54:49;;;;;;;70.00;29.60;;;;;;;2.73;100.00;98125.34;4990345;28;20058;-72
2023/02/12 03:57:19;;;;;;;73.00;28.40;;;;;;;2.76;100.00;98135.66;4989900;28;20057;-72
2023/02/12 03:59:46;;;;;;;73.18;29.65;;;;;;;2.83;100.00;98136.41;4990473;28;20410;-72
2023/02/12 04:02:16;;;;;;;72.53;29.90;;;;;;;2.92;100.00;98136.09;4989765;28;20047;-72
2023/02/12 04:04:44;;;;;;;61.65;26.83;;;;;;;2.66;100.00;98135.34;4990729;28;20055;-73
2023/02/12 04:07:12;;;;;;;67.63;28.17;;;;;;;2.68;100.00;98132.47;4989600;28;20053;-72
2023/02/12 04:09:38;;;;;;;73.88;31.02;;;;;;;2.45;100.00;98141.16;4990432;28;20125;-72
2023/02/12 04:12:25;;;;;;;79.30;31.60;;;;;;;2.38;100.00;98143.09;4989725;28;20057;-73
2023/02/12 04:14:58;;;;;;;80.68;31.92;;;;;;;2.43;100.00;98145.94;4987308;28;20494;-73
2023/02/12 04:17:37;;;;;;;88.60;32.88;;;;;;;2.32;100.00;98140.25;4989760;28;20054;-72
2023/02/12 04:20:10;;;;;;;78.95;31.48;;;;;;;2.36;100.00;98146.03;4989875;28;20043;-73
2023/02/12 04:22:48;;;;;;;95.43;35.42;;;;;;;2.26;100.00;98146.53;4993722;28;20057;-72
2023/02/12 04:25:24;;;;;;;88.20;34.17;;;;;;;2.40;100.00;98143.69;4993204;28;20046;-72
2023/02/12 04:27:57;;;;;;;82.40;33.58;;;;;;;2.44;100.00;98151.09;4994050;28;20050;-72
2023/02/12 04:30:28;;;;;;;71.45;30.42;;;;;;;2.59;100.00;98156.94;4993741;28;20637;-73
2023/02/12 04:33:00;;;;;;;84.32;34.72;;;;;;;2.63;100.00;98165.41;4993786;28;20046;-72
2023/02/12 04:35:32;;;;;;;84.38;34.53;;;;;;;2.59;100.00;98156.13;4993468;28;20494;-72
2023/02/12 04:38:07;;;;;;;90.78;34.28;;;;;;;2.55;100.00;98165.69;4993781;28;20433;-72
2023/02/12 04:40:35;;;;;;;74.47;30.85;;;;;;;2.69;100.00;98161.00;4993327;28;20672;-73
2023/02/12 04:43:01;;;;;;;72.60;30.00;;;;;;;2.80;100.00;98163.75;4993448;28;20439;-72
2023/02/12 04:45:30;;;;;;;70.15;29.80;;;;;;;2.83;100.00;98171.41;4976180;28;20395;-72
2023/02/12 04:47:58;;;;;;;78.85;32.53;;;;;;;2.86;100.00;98173.63;4993462;28;20474;-72
2023/02/12 04:50:25;;;;;;;73.68;31.42;;;;;;;2.88;100.00;98182.31;4992966;28;20042;-72
2023/02/12 04:52:52;;;;;;;70.78;30.85;;;;;;;2.87;100.00;98177.97;4993287;28;20470;-71
2023/02/12 04:55:19;;;;;;;75.13;31.13;;;;;;;2.90;100.00;98182.06;4992722;28;20057;-72
2023/02/12 04:57:45;;;;;;;79.60;32.53;;;;;;;2.82;100.00;98180.53;4993566;28;20450;-72
2023/02/12 05:00:14;;;;;;;84.35;33.75;;;;;;;2.72;100.00;98176.69;4993124;28;20362;-72
2023/02/12 05:02:40;;;;;;;98.05;36.33;;;;;;;2.46;100.00;98177.78;4993084;28;20046;-74
2023/02/12 05:05:08;;;;;;;105.05;39.63;;;;;;;2.30;100.00;98176.47;4992955;28;20051;-73
2023/02/12 05:07:34;;;;;;;107.50;39.13;;;;;;;2.28;100.00;98181.22;4993143;28;20539;-72
2023/02/12 05:10:01;;;;;;;109.28;40.47;;;;;;;2.25;100.00;98170.94;4993365;28;20050;-72
2023/02/12 05:12:28;;;;;;;115.10;42.17;;;;;;;2.21;100.00;98181.31;4992596;28;20570;-73
2023/02/12 05:14:54;;;;;;;114.28;42.65;;;;;;;2.25;100.00;98182.50;4993331;28;20049;-73
2023/02/12 05:17:22;;;;;;;119.13;43.33;;;;;;;2.25;100.00;98187.88;4992607;28;20050;-72
2023/02/12 05:19:48;;;;;;;119.03;43.80;;;;;;;2.44;100.00;98187.91;4993041;28;20046;-73
2023/02/12 05:22:16;;;;;;;104.40;42.40;;;;;;;2.48;100.00;98191.81;4992411;28;20057;-73
2023/02/12 05:24:43;;;;;;;110.20;45.25;;;;;;;2.33;100.00;98184.09;4992819;28;20141;-73
2023/02/12 05:27:10;;;;;;;122.28;46.95;;;;;;;2.28;100.00;98187.44;4992485;28;20042;-73
2023/02/12 05:29:36;;;;;;;122.43;48.17;;;;;;;2.22;100.00;98188.31;4992990;28;20080;-73
2023/02/12 05:32:05;;;;;;;127.55;48.78;;;;;;;2.17;100.00;98190.84;4991782;28;20053;-74
2023/02/12 05:34:32;;;;;;;129.50;49.00;;;;;;;2.07;100.00;98185.94;4992811;28;20565;-72
2023/02/12 05:36:58;;;;;;;128.50;49.63;;;;;;;2.02;100.00;98187.66;4992785;28;20115;-73
2023/02/12 05:39:26;;;;;;;139.98;51.88;;;;;;;1.96;100.00;98191.22;4992260;28;20498;-73
2023/02/12 05:41:53;;;;;;;136.27;50.70;;;;;;;1.97;100.00;98184.78;4992577;28;20053;-73
2023/02/12 05:44:19;;;;;;;138.30;52.92;;;;;;;2.00;100.00;98195.13;4992154;28;20042;-73
2023/02/12 05:46:46;;;;;;;154.50;52.88;;;;;;;1.99;100.00;98188.09;4992383;28;20423;-73
2023/02/12 05:49:12;;;;;;;152.57;54.40;;;;;;;1.97;100.00;98192.84;4992007;28;20050;-73
2023/02/12 05:51:39;;;;;;;148.30;53.58;;;;;;;1.92;100.00;98192.69;4992412;28;20043;-72
2023/02/12 05:54:06;;;;;;;167.35;56.10;;;;;;;1.90;100.00;98190.22;4991676;28;20058;-73
2023/02/12 05:56:36;;;;;;;156.75;54.38;;;;;;;2.03;100.00;98195.47;4992621;28;20042;-73
2023/02/12 05:59:05;;;;;;;138.88;51.95;;;;;;;2.15;100.00;98192.94;4991762;28;20062;-73
2023/02/12 06:01:33;;;;;;;138.88;51.47;;;;;;;2.17;100.00;98206.97;4991966;28;20206;-72
2023/02/12 06:04:01;;;;;;;144.60;53.10;;;;;;;2.06;100.00;98204.97;4992188;28;20069;-73
2023/02/12 06:06:28;;;;;;;151.00;53.35;;;;;;;2.08;100.00;98206.41;4991926;28;20038;-73
2023/02/12 06:08:56;;;;;;;143.45;53.60;;;;;;;2.06;100.00;98204.97;4992012;28;20046;-73
2023/02/12 06:11:23;;;;;;;146.30;52.38;;;;;;;2.16;100.00;98209.88;4991444;28;20406;-72
2023/02/12 06:13:51;;;;;;;143.65;53.45;;;;;;;2.11;100.00;98209.72;4992233;28;20042;-72
2023/02/12 06:16:19;;;;;;;142.95;53.17;;;;;;;2.08;100.00;98202.88;4991665;28;20513;-73
2023/02/12 06:18:46;;;;;;;155.13;55.05;;;;;;;2.03;100.00;98208.09;4991988;28;20050;-73
2023/02/12 06:21:13;;;;;;;144.77;51.85;;;;;;;2.10;100.00;98208.88;4991417;28;20050;-72
2023/02/12 06:23:40;;;;;;;149.93;53.78;;;;;;;2.09;100.00;98201.88;4991502;28;20053;-72
2023/02/12 06:26:07;;;;;;;126.10;48.97;;;;;;;2.25;100.00;98203.19;4991386;28;20050;-72
2023/02/12 06:28:34;;;;;;;153.95;54.33;;;;;;;2.02;100.00;98201.91;4991813;28;20057;-72
2023/02/12 06:31:02;;;;;;;144.38;55.45;;;;;;;1.96;100.00;98208.16;4991346;28;20060;-72
2023/02/12 06:33:28;;;;;;;161.88;55.67;;;;;;;2.07;100.00;98206.63;4991329;28;20054;-72
2023/02/12 06:35:55;;;;;;;152.85;53.58;;;;;;;2.06;100.00;98213.03;4991412;28;20062;-71
2023/02/12 06:38:21;;;;;;;145.10;53.28;;;;;;;2.16;100.00;98213.38;4991199;28;20069;-72
2023/02/12 06:40:48;;;;;;;152.27;55.95;;;;;;;2.07;100.00;98214.69;4993359;28;20520;-72
2023/02/12 06:43:14;;;;;;;136.52;50.85;;;;;;;2.19;100.00;98214.81;4986586;28;20050;-72
2023/02/12 06:45:41;;;;;;;146.25;54.13;;;;;;;2.14;100.00;98218.16;4988047;28;20461;-71
2023/02/12 06:48:09;;;;;;;143.40;53.97;;;;;;;2.11;100.00;98218.59;4987358;28;20046;-72
2023/02/12 06:50:36;;;;;;;151.40;53.10;;;;;;;2.11;100.00;98223.97;4987501;28;20057;-73
2023/02/12 06:53:02;;;;;;;142.05;52.75;;;;;;;2.23;100.00;98222.22;4987400;28;20043;-73
2023/02/12 06:55:29;;;;;;;133.23;51.15;;;;;;;2.29;100.00;98232.09;4987898;28;20066;-72
2023/02/12 06:57:55;;;;;;;130.93;51.00;;;;;;;2.25;100.00;98230.06;4970587;28;20050;-72
2023/02/12 07:00:23;;;;;;;149.70;53.83;;;;;;;2.17;100.00;98228.47;4986862;28;20050;-72
2023/02/12 07:02:54;;;;;;;149.55;54.83;;;;;;;1.99;100.00;98231.09;4987284;28;20054;-72
2023/02/12 07:05:25;;;;;;;141.43;52.28;;;;;;;2.13;100.00;98238.00;4987480;28;20051;-72
2023/02/12 07:07:51;;;;;;;147.40;55.03;;;;;;;2.19;100.00;98230.94;4987851;28;20531;-71
2023/02/12 07:10:19;;;;;;;152.65;53.95;;;;;;;2.22;100.00;98231.31;4986914;28;20076;-73
2023/02/12 07:12:45;;;;;;;142.70;54.22;;;;;;;2.41;100.00;98234.91;4987356;28;20061;-71
2023/02/12 07:15:12;;;;;;;147.25;54.15;;;;;;;2.44;100.00;98229.06;4987047;28;20072;-72
2023/02/12 07:17:38;;;;;;;149.50;54.10;;;;;;;2.23;100.00;98232.16;4985602;28;20077;-72
2023/02/12 07:20:06;;;;;;;160.23;55.20;;;;;;;2.16;100.00;98237.56;4987993;28;20120;-74
2023/02/12 07:22:37;;;;;;;159.18;55.75;;;;;;;2.06;100.00;98226.47;4988297;28;20065;-72
2023/02/12 07:25:03;;;;;;;157.68;59.03;;;;;;;2.06;100.00;98235.38;4987965;28;20566;-72
2023/02/12 07:27:30;;;;;;;150.38;55.17;;;;;;;2.18;100.00;98218.53;4988840;28;20803;-74
2023/02/12 07:29:56;;;;;;;148.73;54.83;;;;;;;2.24;100.00;98225.72;4988059;28;20053;-72
2023/02/12 07:32:23;;;;;;;156.45;55.42;;;;;;;2.28;100.00;98230.44;4988160;28;20351;-72
2023/02/12 07:34:49;;;;;;;156.45;54.92;;;;;;;2.28;100.00;98230.44;4988509;28;20054;-72
2023/02/12 07:37:21;;;;;;;136.52;50.50;;;;;;;2.34;100.00;98229.56;4988046;28;20054;-72
2023/02/12 07:39:49;;;;;;;150.32;53.85;;;;;;;2.50;100.00;98238.94;4988853;28;20058;-71
2023/02/12 07:42:15;;;;;;;143.63;53.03;;;;;;;2.62;100.00;98239.06;4987661;28;20053;-73
2023/02/12 07:44:42;;;;;;;140.00;51.47;;;;;;;2.53;100.00;98243.91;4989092;28;20077;-72
2023/02/12 07:47:08;;;;;;;155.20;53.70;;;;;;;2.50;100.00;98235.44;4989682;28;20154;-72
2023/02/12 07:49:35;;;;;;;138.88;52.05;;;;;;;2.61;100.00;98234.75;4990774;28;20054;-72
2023/02/12 07:52:01;;;;;;;135.32;50.42;;;;;;;2.69;100.00;98237.13;4989962;28;20050;-73
2023/02/12 07:54:28;;;;;;;124.63;48.47;;;;;;;2.78;100.00;98245.75;4990640;28;20073;-72
2023/02/12 07:56:57;;;;;;;126.40;47.10;;;;;;;2.93;100.00;98243.53;4990065;28;20051;-73
2023/02/12 07:59:23;;;;;;;127.22;47.40;;;;;;;3.04;100.00;98244.66;4989055;28;20054;-73
2023/02/12 08:01:52;;;;;;;125.50;46.60;;;;;;;3.13;100.00;98237.91;4993673;28;20058;-73
2023/02/12 08:04:20;;;;;;;110.90;44.97;;;;;;;3.19;100.00;98247.00;4993436;28;20054;-73
2023/02/12 08:06:49;;;;;;;99.00;42.20;;;;;;;3.21;100.00;98245.72;4993491;28;20054;-75
2023/02/12 08:09:18;;;;;;;107.05;42.55;;;;;;;3.25;100.00;98241.53;4993072;28;20054;-73
2023/02/12 08:11:45;;;;;;;111.03;41.88;;;;;;;3.31;100.00;98232.53;4993459;28;20046;-72
2023/02/12 08:14:15;;;;;;;111.15;45.53;;;;;;;3.33;100.00;98237.69;4990600;28;20057;-73
2023/02/12 08:16:43;;;;;;;108.15;43.67;;;;;;;3.39;100.00;98229.56;4987872;28;20138;-75
2023/02/12 08:19:10;;;;;;;109.28;43.47;;;;;;;3.40;100.00;98231.19;4987988;28;20053;-73
2023/02/12 08:21:37;;;;;;;107.90;42.00;;;;;;;3.26;100.00;98229.69;4988091;28;20635;-72
2023/02/12 08:24:04;;;;;;;107.25;41.28;;;;;;;3.21;100.00;98234.94;4986642;28;20058;-74
2023/02/12 08:26:32;;;;;;;110.50;42.60;;;;;;;3.42;100.00;98230.97;4988055;28;20090;-73
2023/02/12 08:29:01;;;;;;;112.78;42.70;;;;;;;3.49;100.00;98225.47;4987415;28;20076;-73
2023/02/12 08:31:30;;;;;;;110.00;41.45;;;;;;;3.54;100.00;98225.63;4986485;28;20046;-73
2023/02/12 08:33:57;;;;;;;104.25;42.60;;;;;;;3.37;100.00;98231.63;4987502;28;20050;-73
2023/02/12 08:36:26;;;;;;;111.00;44.83;;;;;;;3.29;100.00;98233.81;4986661;28;20046;-72
2023/02/12 08:38:53;;;;;;;117.57;44.25;;;;;;;3.25;100.00;98236.13;4987303;28;20053;-73
2023/02/12 08:41:21;;;;;;;118.35;47.05;;;;;;;3.36;100.00;98231.88;4986026;28;20050;-73
2023/02/12 08:43:48;;;;;;;101.78;42.85;;;;;;;3.55;100.00;98224.56;5001363;28;20058;-73
2023/02/12 08:46:17;;;;;;;110.45;42.53;;;;;;;3.51;100.00;98228.78;5006207;28;20166;-73
2023/02/12 08:48:45;;;;;;;118.18;42.33;;;;;;;3.35;100.00;98233.75;5006200;28;20050;-73
2023/02/12 08:51:15;;;;;;;98.18;39.95;;;;;;;3.46;100.00;98231.34;5005692;28;20053;-73
2023/02/12 08:53:44;;;;;;;98.72;39.30;;;;;;;3.51;100.00;98223.41;4993106;28;20165;-73
2023/02/12 08:56:12;;;;;;;114.10;40.88;;;;;;;3.25;100.00;98229.94;4986708;28;20042;-73
2023/02/12 08:58:39;;;;;;;99.70;39.28;;;;;;;3.40;100.00;98233.06;4987121;28;20046;-73
2023/02/12 09:01:10;;;;;;;105.88;40.33;;;;;;;3.39;100.00;98237.63;4987912;28;20060;-73
2023/02/12 09:03:36;;;;;;;107.30;39.70;;;;;;;3.36;100.00;98232.69;4987969;28;20058;-73
2023/02/12 09:06:05;;;;;;;109.40;39.95;;;;;;;3.48;100.00;98231.94;4986946;28;20049;-72
2023/02/12 09:08:33;;;;;;;94.80;35.25;;;;;;;3.69;100.00;98230.63;4990784;28;20050;-73
2023/02/12 09:10:59;;;;;;;100.53;37.15;;;;;;;3.59;100.00;98225.78;4989450;28;20422;-72
2023/02/12 09:13:25;;;;;;;101.13;37.42;;;;;;;3.60;100.00;98230.94;4989326;28;20042;-73
2023/02/12 09:15:52;;;;;;;99.88;38.83;;;;;;;3.55;100.00;98236.19;4989579;28;20057;-73
2023/02/12 09:18:18;;;;;;;101.75;37.90;;;;;;;3.82;100.00;98228.56;4989041;28;20743;-73
2023/02/12 09:20:45;;;;;;;98.72;36.50;;;;;;;3.97;100.00;98233.56;4990847;28;20058;-77
2023/02/12 09:23:14;;;;;;;83.82;33.85;;;;;;;4.21;100.00;98229.03;4991039;28;20058;-73
2023/02/12 09:25:42;;;;;;;91.95;33.78;;;;;;;4.29;100.00;98226.00;4992233;28;20046;-73
2023/02/12 09:28:09;;;;;;;80.80;31.73;;;;;;;4.45;100.00;98225.34;4988007;28;20050;-73
2023/02/12 09:30:37;;;;;;;85.82;34.10;;;;;;;4.45;100.00;98225.34;4974005;28;20046;-73
2023/02/12 09:33:05;;;;;;;76.32;31.05;;;;;;;4.52;100.00;98236.00;4975649;28;20054;-74
2023/02/12 09:35:34;;;;;;;68.82;29.65;;;;;;;4.74;100.00;98236.25;4976804;28;20057;-74
2023/02/12 09:38:00;;;;;;;68.40;28.58;;;;;;;4.76;100.00;98228.75;4977508;28;20057;-73
2023/02/12 09:40:50;;;;;;;70.95;28.35;;;;;;;4.87;100.00;98237.91;4978924;28;20051;-73
2023/02/12 09:43:19;;;;;;;62.38;26.38;;;;;;;4.84;100.00;98239.19;4976868;28;20047;-73
2023/02/12 09:45:53;;;;;;;61.67;27.75;;;;;;;4.79;100.00;98232.84;4980184;28;20055;-73
2023/02/12 09:48:30;;;;;;;;;;;;;;;4.79;100.00;98238.25;4976697;28;20047;-73
2023/02/12 09:51:00;;;;;;;66.03;27.52;;;;;;;5.02;100.00;98242.84;4974947;28;19997;-72
2023/02/12 09:53:29;;;;;;;67.50;28.60;;;;;;;4.99;100.00;98236.00;4984944;28;20513;-73
2023/02/12 09:55:57;;;;;;;60.78;27.00;;;;;;;5.34;100.00;98241.38;4995997;28;20051;-73
2023/02/12 09:58:31;;;;;;;62.92;26.67;;;;;;;5.60;100.00;98241.91;4997472;28;20052;-73
2023/02/12 10:00:57;;;;;;;56.83;26.10;;;;;;;5.65;100.00;98250.13;4997875;28;20051;-74
2023/02/12 10:03:25;;;;;;;53.97;23.92;;;;;;;5.64;99.42;98259.28;4992152;28;20046;-75
2023/02/12 10:06:00;;;;;;;51.92;23.17;;;;;;;5.73;99.08;98252.41;4993004;28;20050;-74
2023/02/12 10:08:48;;;;;;;44.00;20.83;;;;;;;5.93;98.54;98252.84;4994768;28;20054;-73
2023/02/12 10:11:37;;;;;;;38.78;20.95;;;;;;;6.10;97.34;98252.06;4995014;28;20050;-73
2023/02/12 10:14:28;;;;;;;43.58;20.58;;;;;;;6.26;96.61;98251.28;4995815;28;20052;-74
2023/02/12 10:17:07;;;;;;;46.55;22.20;;;;;;;6.32;95.69;98255.75;4998234;28;20068;-73
2023/02/12 10:19:59;;;;;;;38.95;19.02;;;;;;;6.17;95.70;98266.28;4998290;28;20539;-73
2023/02/12 10:22:33;;;;;;;35.75;18.13;;;;;;;6.43;95.10;98262.97;4995054;28;20050;-73
2023/02/12 10:25:12;;;;;;;34.85;17.85;;;;;;;6.61;94.52;98258.38;4995707;28;20060;-74
2023/02/12 10:27:43;;;;;;;34.90;18.92;;;;;;;6.72;92.51;98265.59;4994944;28;20057;-73
2023/02/12 10:30:21;;;;;;;34.35;18.35;;;;;;;6.90;92.12;98261.81;4996114;28;20069;-73
2023/02/12 10:32:52;;;;;;;33.28;17.45;;;;;;;6.97;92.20;98260.56;4997222;28;20057;-73
2023/02/12 10:35:22;;;;;;;31.88;16.50;;;;;;;6.73;90.15;98256.41;4995649;28;20064;-73
2023/02/12 10:37:55;;;;;;;26.10;12.98;;;;;;;6.90;91.21;98265.34;4995498;28;20410;-74
2023/02/12 10:40:27;;;;;;;25.20;14.48;;;;;;;6.88;90.34;98259.34;4994455;28;20054;-74
2023/02/12 10:42:56;;;;;;;23.27;12.38;;;;;;;6.90;89.75;98251.81;4995392;28;20352;-73
2023/02/12 10:45:30;;;;;;;25.63;13.90;;;;;;;6.56;90.60;98252.88;4995811;28;20042;-73
2023/02/12 10:48:07;;;;;;;26.92;14.55;;;;;;;6.45;91.61;98251.88;4990660;28;20042;-74
2023/02/12 10:50:44;;;;;;;25.58;12.55;;;;;;;6.33;93.69;98251.97;4989103;28;20082;-74
2023/02/12 10:53:20;;;;;;;26.25;14.18;;;;;;;6.67;92.06;98251.97;4988551;28;20053;-74
2023/02/12 10:55:47;;;;;;;30.55;15.35;;;;;;;6.66;91.91;98244.91;4988394;28;20047;-74
2023/02/12 10:58:21;;;;;;;31.08;15.93;;;;;;;6.84;92.25;98252.81;4988235;28;20610;-74
2023/02/12 11:00:56;;;;;;;31.80;16.52;;;;;;;6.77;91.76;98247.53;4987099;28;20078;-74
2023/02/12 11:03:27;;;;;;;31.33;16.23;;;;;;;6.84;91.50;98250.09;4974096;28;20054;-74
2023/02/12 11:05:54;;;;;;;33.90;16.80;;;;;;;6.92;91.31;98249.66;4988344;28;20042;-74
2023/02/12 11:08:30;;;;;;;34.47;16.85;;;;;;;6.91;91.10;98248.03;4987679;28;20050;-74
2023/02/12 11:11:03;;;;;;;30.35;16.00;;;;;;;6.99;91.03;98247.59;4987609;28;20534;-74
2023/02/12 11:13:32;;;;;;;28.52;14.52;;;;;;;6.98;90.51;98243.25;4987788;28;20146;-74
2023/02/12 11:15:59;;;;;;;29.45;15.63;;;;;;;6.72;91.54;98243.94;4987898;28;20502;-74
2023/02/12 11:18:28;;;;;;;28.35;14.73;;;;;;;6.93;90.95;98240.47;4987475;28;20096;-73
2023/02/12 11:20:57;;;;;;;28.20;13.68;;;;;;;6.91;89.49;98237.19;4987165;28;20514;-74
2023/02/12 11:23:26;;;;;;;24.83;12.68;;;;;;;7.08;89.33;98248.00;4986735;28;20734;-73
2023/02/12 11:25:57;;;;;;;31.20;15.98;;;;;;;7.00;88.91;98234.91;4987818;28;20058;-74
2023/02/12 11:28:24;;;;;;;31.00;15.05;;;;;;;6.86;87.93;98239.81;4987070;28;20046;-74
2023/02/12 11:30:55;;;;;;;29.60;14.57;;;;;;;7.04;87.79;98242.25;4987093;28;20054;-74
2023/02/12 11:33:26;;;;;;;37.63;17.95;;;;;;;7.04;87.90;98242.25;4987037;28;20581;-74
2023/02/12 11:35:55;;;;;;;31.42;15.85;;;;;;;6.84;87.03;98241.13;4987843;28;20053;-73